Terminal Aerodrome Forecast
Issued by NWS

Home | Current Version | Previous Version | Graphics & Text | Print | Product List | Glossary On
Versions: 1 2 3 4 5 6 7 8 9 10 11 12 13 14
000
FTUS43 KPAH 290500
TAFCGI
TAF
KCGI 290520Z 2906/3006 35004KT P6SM SKC
      TEMPO 2910/2912 4SM BR
     FM291400 35006KT P6SM SCT060
     FM300100 00000KT P6SM SKC=

USA.gov is the U.S. government's official web portal to all federal, state and local government web resources and services.